»·PEaware :: N235MB KRIF-KBJC

N235MB :: KRIF-KBJC

FLIGHT INFORMATION

Flight Status: Arrived
Operator: Privately registered:
United States
More flights under this callsign
Pilot: Eric W. (14379)
Aircraft: SOCATA TBM-900
(TBM9)
More flights by this aircraft type
Origin: KRIF Richfield Mun
United States
Destination: KBJC Jeffco
United States
More flights between these airports :: More routes between these airports
Route: HAMET3 HAMET HVE JNC DBL POWDR9
File this flight plan on PilotEdge
Remarks:
Altitude:
(Current/Filed)
31,000ft
Speed:
(Current/Filed)
300kts
Departed: 23-Dec-19 04:10 PM
Arrived: 23-Dec-19 05:25 PM
Distance/Time
Traveled:
332nm/1:15
Distance/Time
To Go:
Arrived

Flight Plot

Page will automatically refresh every two minutes.

Flight plan parsing failed; only flown route is shown


Map Options




Map Legend


Flown Route
Filed Route
Departure Airport
Arrival Airport
Navaid (VOR, NDB)
Fix

Horizontal Profiles

Position Reports

Time Latitude Longitude Heading Altitude Ground
Speed
23-Dec-19 15:41 38.728531 -112.100113 27 5294ft 0kts
23-Dec-19 15:43 38.728531 -112.100113 27 5294ft 0kts
23-Dec-19 15:43 38.728531 -112.100113 27 5294ft 0kts
23-Dec-19 15:44 38.728531 -112.100113 27 5294ft 0kts
23-Dec-19 15:46 38.728531 -112.100113 27 5294ft 0kts
23-Dec-19 15:46 38.728531 -112.100113 27 5294ft 0kts
23-Dec-19 15:47 38.728531 -112.100113 27 5294ft 0kts
23-Dec-19 15:48 38.728531 -112.100113 27 5294ft 0kts
23-Dec-19 15:49 38.728531 -112.100113 27 5294ft 0kts
23-Dec-19 15:50 38.728531 -112.100113 27 5294ft 0kts
23-Dec-19 15:51 38.728531 -112.100113 27 5294ft 0kts
23-Dec-19 15:52 38.728531 -112.100113 27 5294ft 0kts
23-Dec-19 15:53 38.728531 -112.100113 27 5294ft 0kts
23-Dec-19 15:54 38.728531 -112.100113 27 5294ft 0kts
23-Dec-19 15:55 38.728531 -112.100113 27 5294ft 0kts
23-Dec-19 15:56 38.728531 -112.100113 27 5294ft 0kts
23-Dec-19 15:57 38.728531 -112.100113 27 5294ft 0kts
23-Dec-19 15:58 38.728531 -112.100113 27 5294ft 0kts
23-Dec-19 15:59 38.728531 -112.100113 27 5294ft 0kts
23-Dec-19 16:00 38.728883 -112.099951 347 5293ft 3kts
23-Dec-19 16:01 38.730438 -112.100874 26 5291ft 10kts
23-Dec-19 16:02 38.733367 -112.099135 25 5286ft 11kts
23-Dec-19 16:03 38.736275 -112.097392 25 5281ft 11kts
23-Dec-19 16:04 38.739199 -112.095667 24 5277ft 11kts
23-Dec-19 16:05 38.742547 -112.093673 24 5277ft 17kts
23-Dec-19 16:06 38.744318 -112.093493 295 5279ft 0kts
23-Dec-19 16:07 38.744318 -112.093493 295 5279ft 0kts
23-Dec-19 16:08 38.744352 -112.093581 295 5279ft 4kts
23-Dec-19 16:09 38.735339 -112.099678 203 5525ft 118kts
23-Dec-19 16:10 38.699387 -112.120750 200 7834ft 156kts
23-Dec-19 16:11 38.661592 -112.145909 203 10383ft 149kts
23-Dec-19 16:12 38.625591 -112.166553 203 12969ft 133kts
23-Dec-19 16:13 38.593646 -112.184854 204 15646ft 127kts
23-Dec-19 16:14 38.561161 -112.203230 196 18190ft 130kts
23-Dec-19 16:15 38.524352 -112.206805 189 20940ft 134kts
23-Dec-19 16:16 38.486226 -112.209965 189 22942ft 160kts
23-Dec-19 16:17 38.430876 -112.214412 187 22929ft 225kts
23-Dec-19 16:18 38.374738 -112.214029 157 25194ft 209kts
23-Dec-19 16:19 38.351726 -112.140455 99 27637ft 256kts
23-Dec-19 16:20 38.356994 -112.051669 105 29790ft 253kts
23-Dec-19 16:21 38.361500 -111.958234 104 31071ft 287kts
23-Dec-19 16:22 38.367069 -111.845357 100 31064ft 341kts
23-Dec-19 16:23 38.373076 -111.720157 99 31108ft 360kts
23-Dec-19 16:24 38.379167 -111.589740 99 31106ft 370kts
23-Dec-19 16:25 38.385202 -111.457353 99 31106ft 374kts
23-Dec-19 16:26 38.391063 -111.325505 100 31098ft 375kts
23-Dec-19 16:27 38.396809 -111.192590 100 31097ft 374kts
23-Dec-19 16:28 38.402312 -111.061949 100 31099ft 374kts
23-Dec-19 16:29 38.407756 -110.929197 100 31101ft 375kts
23-Dec-19 16:30 38.413064 -110.796080 100 31102ft 375kts
23-Dec-19 16:31 38.426899 -110.662014 76 31104ft 403kts
23-Dec-19 16:32 38.475381 -110.531044 74 31107ft 406kts
23-Dec-19 16:33 38.521121 -110.398651 74 31110ft 406kts
23-Dec-19 16:34 38.566660 -110.266239 75 31100ft 406kts
23-Dec-19 16:35 38.612114 -110.133443 75 31076ft 407kts
23-Dec-19 16:36 38.657390 -110.000579 75 31078ft 407kts
23-Dec-19 16:37 38.702651 -109.867130 75 31081ft 407kts
23-Dec-19 16:38 38.747752 -109.733549 74 31083ft 408kts
23-Dec-19 16:39 38.792685 -109.599846 74 31086ft 408kts
23-Dec-19 16:40 38.837593 -109.465592 74 31088ft 408kts
23-Dec-19 16:41 38.882370 -109.331142 75 31082ft 408kts
23-Dec-19 16:42 38.926958 -109.196557 75 31081ft 407kts
23-Dec-19 16:43 38.971172 -109.062493 74 31083ft 406kts
23-Dec-19 16:44 39.015198 -108.928369 74 31086ft 406kts
23-Dec-19 16:45 39.058387 -108.795056 79 31080ft 403kts
23-Dec-19 16:46 39.087876 -108.656889 84 31090ft 398kts
23-Dec-19 16:47 39.116445 -108.519112 83 31073ft 397kts
23-Dec-19 16:48 39.144224 -108.384259 83 31075ft 396kts
23-Dec-19 16:49 39.171890 -108.249093 84 31065ft 394kts
23-Dec-19 16:50 39.199628 -108.112687 84 31068ft 393kts
23-Dec-19 16:51 39.227211 -107.976160 84 31070ft 393kts
23-Dec-19 16:52 39.254724 -107.839081 83 31073ft 393kts
23-Dec-19 16:53 39.282055 -107.702001 83 31075ft 394kts
23-Dec-19 16:54 39.309200 -107.564963 83 31117ft 392kts
23-Dec-19 16:55 39.336068 -107.428363 83 31188ft 393kts
23-Dec-19 16:56 39.362870 -107.291248 84 31177ft 393kts
23-Dec-19 16:57 39.389462 -107.154195 83 31118ft 394kts
23-Dec-19 16:58 39.415986 -107.016642 83 31154ft 392kts
23-Dec-19 16:59 39.438264 -106.879628 100 31093ft 378kts
23-Dec-19 17:00 39.411055 -106.756519 119 31105ft 356kts
23-Dec-19 17:01 39.384501 -106.632189 117 31105ft 358kts
23-Dec-19 17:02 39.358247 -106.507660 117 31133ft 359kts
23-Dec-19 17:03 39.331833 -106.383107 116 31134ft 359kts
23-Dec-19 17:04 39.305708 -106.260597 117 31123ft 359kts
23-Dec-19 17:05 39.279902 -106.140400 116 30541ft 363kts
23-Dec-19 17:06 39.253327 -106.017024 116 29004ft 350kts
23-Dec-19 17:07 39.227137 -105.896347 115 27474ft 348kts
23-Dec-19 17:08 39.225731 -105.768195 76 25947ft 374kts
23-Dec-19 17:09 39.286820 -105.663591 53 24405ft 357kts
23-Dec-19 17:10 39.346619 -105.563471 54 22803ft 345kts
23-Dec-19 17:11 39.405286 -105.464530 54 20984ft 338kts
23-Dec-19 17:12 39.462341 -105.367706 54 19188ft 332kts
23-Dec-19 17:13 39.515875 -105.276588 54 17153ft 293kts
23-Dec-19 17:14 39.561317 -105.199024 53 14804ft 253kts
23-Dec-19 17:15 39.603856 -105.125689 53 12517ft 253kts
23-Dec-19 17:16 39.645307 -105.057701 53 10206ft 231kts
23-Dec-19 17:17 39.683350 -104.993329 52 8023ft 215kts
23-Dec-19 17:18 39.734646 -104.986071 351 7997ft 196kts
23-Dec-19 17:19 39.789535 -104.993778 346 8007ft 198kts
23-Dec-19 17:20 39.836049 -105.012083 339 7450ft 152kts
23-Dec-19 17:21 39.868355 -105.039133 309 6263ft 136kts
23-Dec-19 17:22 39.886416 -105.073416 305 5982ft 100kts
23-Dec-19 17:23 39.901392 -105.102061 306 5567ft 86kts
23-Dec-19 17:24 39.906052 -105.108662 9 5578ft 7kts
23-Dec-19 17:25 39.907615 -105.109764 25 5587ft 7kts
23-Dec-19 17:26 39.908377 -105.109542 307 5589ft 0kts
23-Dec-19 17:27 39.908377 -105.109542 307 5589ft 0kts
23-Dec-19 17:28 39.908377 -105.109542 307 5589ft 0kts
23-Dec-19 17:29 39.908377 -105.109542 307 5589ft 0kts
23-Dec-19 17:30 39.908377 -105.109542 307 5589ft 0kts
23-Dec-19 17:31 39.908377 -105.109542 307 5589ft 0kts
23-Dec-19 17:32 39.908377 -105.109542 307 5589ft 0kts
23-Dec-19 17:33 39.908377 -105.109542 307 5589ft 0kts
23-Dec-19 17:34 39.908377 -105.109542 307 5589ft 0kts
23-Dec-19 17:35 39.908377 -105.109542 307 5589ft 0kts
23-Dec-19 17:36 39.908377 -105.109542 307 5589ft 0kts
23-Dec-19 17:37 39.908377 -105.109542 307 5589ft 0kts
23-Dec-19 17:38 39.908377 -105.109542 307 5589ft 0kts

Navigation Log

Ident Type
Flight plan parsing failed, navigation log unavailable